Time;durP1;ratioP1;P1;durP2;ratioP2;P2;SDS_P1;SDS_P2;PMS_P1;PMS_P2;Temp;Humidity;BMP_temperature;BMP_pressure;BME280_temperature;BME280_humidity;BME280_pressure;Samples;Min_cycle;Max_cycle;Signal;HPM_P1;HPM_P2
2021/10/03 00:00:58;;;;;;;;;2.00;2.00;;;;;17.68;75.13;98922.28;5059188;28;45531;-61
2021/10/03 00:03:24;;;;;;;;;2.00;2.00;;;;;17.69;75.29;98913.28;5058906;28;46169;-60
2021/10/03 00:05:56;;;;;;;;;3.00;3.00;;;;;17.68;75.06;98909.00;5040969;28;45331;-61
2021/10/03 00:08:23;;;;;;;;;3.25;3.25;;;;;17.69;74.89;98918.59;5059209;28;45359;-61
2021/10/03 00:10:49;;;;;;;;;3.50;2.00;;;;;17.71;74.96;98916.50;5041108;28;45449;-61
2021/10/03 00:13:14;;;;;;;;;4.50;3.00;;;;;17.71;75.14;98908.53;5058779;28;46663;-60
2021/10/03 00:15:39;;;;;;;;;2.75;2.75;;;;;17.72;75.10;98904.84;5057906;28;70761;-61
2021/10/03 00:18:06;;;;;;;;;3.00;3.00;;;;;17.74;74.76;98902.78;5058218;28;61252;-61
2021/10/03 00:20:31;;;;;;;;;3.50;3.50;;;;;17.74;74.77;98889.50;5058899;28;45517;-61
2021/10/03 00:22:56;;;;;;;;;2.75;2.50;;;;;17.74;74.67;98882.38;5040388;28;46557;-60
2021/10/03 00:25:25;;;;;;;;;4.75;3.00;;;;;17.76;74.64;98895.41;5057767;28;71132;-60
2021/10/03 00:27:51;;;;;;;;;5.50;4.00;;;;;17.76;74.87;98895.41;5059371;27;45431;-60
2021/10/03 00:30:16;;;;;;;;;2.75;2.75;;;;;17.76;74.54;98882.13;5058759;28;45562;-61
2021/10/03 00:32:41;;;;;;;;;2.75;2.50;;;;;17.77;74.77;98889.06;5058184;28;62423;-61
2021/10/03 00:35:07;;;;;;;;;3.00;3.00;;;;;17.77;74.50;98886.41;5058533;28;45550;-60
2021/10/03 00:37:32;;;;;;;;;4.00;4.00;;;;;17.79;74.34;98873.72;5058646;28;45475;-61
2021/10/03 00:39:58;;;;;;;;;4.00;4.00;;;;;17.78;74.63;98874.75;5057959;28;62650;-61
2021/10/03 00:42:23;;;;;;;;;4.00;3.00;;;;;17.79;74.38;98871.06;5057779;28;64071;-60
2021/10/03 00:44:49;;;;;;;;;3.75;3.75;;;;;17.79;74.29;98868.41;5039230;28;45289;-61
2021/10/03 00:47:15;;;;;;;;;4.50;3.00;;;;;17.80;74.44;98854.88;5058574;28;45362;-61
2021/10/03 00:49:40;;;;;;;;;3.50;3.50;;;;;17.82;74.53;98862.63;5040615;28;45518;-61
2021/10/03 00:52:06;;;;;;;;;3.25;3.00;;;;;17.80;74.37;98860.19;5058368;28;46053;-61
2021/10/03 00:54:32;;;;;;;;;6.50;4.25;;;;;17.80;74.27;98838.13;5058264;28;45252;-60
2021/10/03 00:56:58;;;;;;;;;4.25;3.00;;;;;17.80;74.16;98849.56;5058383;28;45350;-60
2021/10/03 00:59:24;;;;;;;;;6.25;4.25;;;;;17.79;74.25;98853.25;5058387;28;45347;-61
2021/10/03 01:01:49;;;;;;;;;4.75;4.00;;;;;17.80;74.53;98844.25;5039152;28;70759;-60
2021/10/03 01:04:14;;;;;;;;;4.00;4.00;;;;;17.82;74.52;98851.19;5057407;28;63701;-60
2021/10/03 01:06:41;;;;;;;;;5.25;4.00;;;;;17.83;74.43;98840.34;5039367;28;66503;-61
2021/10/03 01:09:07;;;;;;;;;3.25;3.25;;;;;17.82;74.27;98840.56;5058126;28;45273;-61
2021/10/03 01:11:32;;;;;;;;;3.00;3.00;;;;;17.81;74.31;98845.06;5058037;28;45586;-61
2021/10/03 01:13:57;;;;;;;;;5.00;3.25;;;;;17.81;74.39;98845.06;5057109;28;67028;-61
2021/10/03 01:16:23;;;;;;;;;4.00;3.25;;;;;17.80;74.23;98843.44;5039060;28;66357;-61
2021/10/03 01:18:49;;;;;;;;;5.00;5.00;;;;;17.79;74.26;98836.53;5039231;28;59326;-61
2021/10/03 01:21:15;;;;;;;;;5.00;4.75;;;;;17.77;74.64;98835.94;5039722;28;48387;-60
2021/10/03 01:23:42;;;;;;;;;4.50;4.00;;;;;17.77;74.46;98827.97;5057993;27;45317;-61
2021/10/03 01:26:08;;;;;;;;;5.50;4.50;;;;;17.76;74.74;98818.38;5057977;28;45449;-61
2021/10/03 01:28:33;;;;;;;;;4.00;4.00;;;;;17.76;74.63;98821.81;5057794;28;45520;-60
2021/10/03 01:30:58;;;;;;;;;4.25;4.25;;;;;17.77;74.59;98812.03;5023205;28;45486;-61
2021/10/03 01:33:25;;;;;;;;;6.00;5.00;;;;;17.75;74.73;98798.97;5057684;28;45447;-61
2021/10/03 01:35:50;;;;;;;;;5.00;5.00;;;;;17.76;74.66;98805.88;5073476;28;45294;-60
2021/10/03 01:38:15;;;;;;;;;7.75;5.75;;;;;17.75;74.40;98806.13;5057140;28;48492;-61
2021/10/03 01:40:42;;;;;;;;;4.00;3.00;;;;;17.73;74.44;98794.91;5056991;28;57135;-61
2021/10/03 01:43:08;;;;;;;;;4.75;4.00;;;;;17.73;74.44;98789.59;5057513;28;45294;-61
2021/10/03 01:45:33;;;;;;;;;7.75;5.00;;;;;17.71;74.77;98791.69;5038687;28;64206;-60
2021/10/03 01:48:09;;;;;;;;;6.75;5.00;;;;;17.71;74.65;98784.53;5057559;28;45523;-61
2021/10/03 01:50:45;;;;;;;;;6.00;5.00;;;;;17.70;74.94;98780.25;5039336;28;47112;-61
2021/10/03 01:53:11;;;;;;;;;5.25;5.25;;;;;17.70;74.71;98776.78;5039480;28;45877;-61
2021/10/03 01:55:37;;;;;;;;;6.00;5.00;;;;;17.68;74.59;98776.19;5057170;28;45261;-61
2021/10/03 01:58:03;;;;;;;;;4.25;4.00;;;;;17.67;74.92;98769.25;5022875;28;45368;-60
2021/10/03 02:00:28;;;;;;;;;3.00;3.00;;;;;17.67;74.90;98774.56;5072761;27;48392;-61
2021/10/03 02:02:58;;;;;;;;;7.25;5.00;;;;;17.65;74.64;98762.31;5038625;28;62573;-61
2021/10/03 02:05:23;;;;;;;;;4.50;4.50;;;;;17.64;74.91;98768.66;5057406;28;45410;-60
2021/10/03 02:07:49;;;;;;;;;4.00;3.75;;;;;17.63;74.99;98751.13;5057194;28;45260;-60
2021/10/03 02:10:14;;;;;;;;;7.50;5.00;;;;;17.62;74.66;98762.78;5039140;28;45355;-60
2021/10/03 02:12:40;;;;;;;;;3.75;3.75;;;;;17.60;75.05;98751.56;5056507;28;60328;-60
2021/10/03 02:15:05;;;;;;;;;5.25;5.25;;;;;17.60;75.03;98743.59;5056782;28;51330;-61
2021/10/03 02:17:31;;;;;;;;;2.50;2.00;;;;;17.60;75.08;98740.94;5039017;28;45186;-61
2021/10/03 02:19:56;;;;;;;;;6.00;6.00;;;;;17.59;75.00;98739.31;5056468;28;60546;-61
2021/10/03 02:22:21;;;;;;;;;5.50;5.50;;;;;17.59;74.91;98739.31;5038380;28;54573;-61
2021/10/03 02:24:47;;;;;;;;;5.00;4.25;;;;;17.58;74.83;98729.75;5038342;28;62096;-60
2021/10/03 02:27:12;;;;;;;;;4.25;4.00;;;;;17.57;74.96;98725.47;5057038;28;45281;-60
2021/10/03 02:29:38;;;;;;;;;6.25;6.25;;;;;17.56;74.38;98723.84;5056326;28;63114;-60
2021/10/03 02:32:03;;;;;;;;;5.25;4.00;;;;;17.56;74.83;98707.13;5056034;28;67917;-60
2021/10/03 02:34:29;;;;;;;;;5.00;4.00;;;;;17.55;74.82;98702.84;5056858;28;45244;-60
2021/10/03 02:36:54;;;;;;;;;5.75;5.25;;;;;17.53;74.49;98703.06;5038673;28;45366;-61
2021/10/03 02:39:19;;;;;;;;;5.50;4.00;;;;;17.50;74.75;98704.34;5056520;28;45637;-61
2021/10/03 02:41:45;;;;;;;;;6.00;4.00;;;;;17.49;74.64;98683.31;5056010;28;61342;-61
2021/10/03 02:44:11;;;;;;;;;5.50;4.75;;;;;17.49;74.72;98696.56;5056379;28;48383;-60
2021/10/03 02:46:36;;;;;;;;;5.00;5.00;;;;;17.47;74.41;98698.69;5056593;28;45415;-60
2021/10/03 02:49:02;;;;;;;;;8.00;5.00;;;;;17.46;74.75;98689.88;5056367;28;45559;-60
2021/10/03 02:51:28;;;;;;;;;4.00;4.00;;;;;17.44;74.57;98686.66;5056355;28;46188;-60
2021/10/03 02:53:54;;;;;;;;;6.00;5.25;;;;;17.43;74.47;98676.28;5056729;28;45391;-61
2021/10/03 02:56:21;;;;;;;;;6.50;5.00;;;;;17.40;74.78;98685.47;5038484;28;45423;-60
2021/10/03 02:58:47;;;;;;;;;6.00;4.00;;;;;17.40;74.29;98684.69;5056167;28;46790;-61
2021/10/03 03:01:12;;;;;;;;;4.00;4.00;;;;;17.38;74.37;98684.09;5038570;28;45233;-61
2021/10/03 03:03:37;;;;;;;;;5.00;5.00;;;;;17.37;74.39;98693.09;5056492;28;45608;-61
2021/10/03 03:06:04;;;;;;;;;6.75;4.75;;;;;17.35;74.65;98664.09;5038553;28;45292;-60
2021/10/03 03:08:30;;;;;;;;;6.00;4.25;;;;;17.32;74.51;98668.03;5059209;28;45555;-61
2021/10/03 03:10:55;;;;;;;;;6.00;6.00;;;;;17.29;74.26;98671.16;5059887;28;45300;-61
2021/10/03 03:13:20;;;;;;;;;7.25;5.00;;;;;17.28;74.54;98672.19;5059282;28;60537;-61
2021/10/03 03:15:46;;;;;;;;;5.00;4.00;;;;;17.28;74.30;98661.56;5041087;28;64017;-60
2021/10/03 03:18:12;;;;;;;;;5.75;5.00;;;;;17.26;74.04;98657.50;5059820;28;46440;-61
2021/10/03 03:20:37;;;;;;;;;8.00;7.00;;;;;17.23;74.28;98653.47;5058807;28;70307;-60
2021/10/03 03:23:02;;;;;;;;;7.00;5.00;;;;;17.23;74.49;98658.78;5058764;28;65704;-61
2021/10/03 03:25:28;;;;;;;;;7.00;6.25;;;;;17.25;74.27;98647.91;5058925;28;64983;-61
2021/10/03 03:27:53;;;;;;;;;8.50;6.00;;;;;17.22;74.24;98635.94;5059732;28;45303;-61
2021/10/03 03:30:19;;;;;;;;;6.00;6.00;;;;;17.24;74.19;98638.34;5058650;28;69109;-61
2021/10/03 03:32:44;;;;;;;;;7.00;7.00;;;;;17.21;73.94;98639.63;5041825;28;45584;-61
2021/10/03 03:35:09;;;;;;;;;5.75;5.75;;;;;17.19;73.85;98628.41;5059593;28;45567;-60
2021/10/03 03:37:35;;;;;;;;;8.00;6.00;;;;;17.17;73.86;98611.91;5058214;28;74222;-61
2021/10/03 03:40:01;;;;;;;;;7.00;6.25;;;;;17.16;74.13;98616.41;5059569;28;45319;-60
2021/10/03 03:42:26;;;;;;;;;7.00;6.50;;;;;17.15;74.13;98612.16;5059521;28;45254;-61
2021/10/03 03:44:51;;;;;;;;;7.75;6.75;;;;;17.15;73.96;98617.47;5058679;28;63033;-61
2021/10/03 03:47:17;;;;;;;;;6.25;6.25;;;;;17.16;74.16;98620.91;5058457;28;67021;-61
2021/10/03 03:49:43;;;;;;;;;6.00;6.00;;;;;17.15;74.02;98617.47;5058370;28;68288;-60
2021/10/03 03:52:08;;;;;;;;;8.00;7.25;;;;;17.17;74.43;98633.13;5059522;28;45336;-60
2021/10/03 03:54:34;;;;;;;;;6.25;5.50;;;;;17.17;74.05;98625.19;5041333;28;45431;-61
2021/10/03 03:56:59;;;;;;;;;7.75;7.00;;;;;17.17;74.05;98611.91;5059379;28;45391;-61
2021/10/03 03:59:25;;;;;;;;;6.25;6.25;;;;;17.17;74.14;98615.38;5059066;28;45430;-61
2021/10/03 04:01:52;;;;;;;;;7.50;7.25;;;;;17.17;74.04;98606.59;5059351;28;45355;-61
2021/10/03 04:04:17;;;;;;;;;7.25;7.25;;;;;17.14;74.15;98605.22;5041339;28;45341;-60
2021/10/03 04:06:42;;;;;;;;;8.25;7.00;;;;;17.15;74.14;98611.31;5040346;28;63343;-61
2021/10/03 04:09:08;;;;;;;;;9.00;6.00;;;;;17.16;74.00;98604.97;5058364;28;63979;-61
2021/10/03 04:11:33;;;;;;;;;8.75;8.50;;;;;17.15;74.07;98606.00;5058255;28;61522;-61
2021/10/03 04:13:58;;;;;;;;;7.25;6.50;;;;;17.15;74.00;98608.66;5058307;28;63037;-61
2021/10/03 04:16:24;;;;;;;;;7.50;7.50;;;;;17.16;74.06;98599.66;5058704;28;48221;-61
2021/10/03 04:18:49;;;;;;;;;11.00;7.25;;;;;17.15;73.92;98598.06;5057915;28;65011;-61
2021/10/03 04:21:14;;;;;;;;;6.00;6.00;;;;;17.15;74.02;98598.88;5040378;28;58382;-61
2021/10/03 04:23:41;;;;;;;;;8.25;6.50;;;;;17.17;74.15;98611.91;5057891;28;65419;-61
2021/10/03 04:26:06;;;;;;;;;6.50;6.00;;;;;17.19;74.34;98617.78;5040587;28;46972;-61
2021/10/03 04:28:33;;;;;;;;;6.50;6.50;;;;;17.20;74.01;98612.28;5040766;28;45281;-61
2021/10/03 04:30:58;;;;;;;;;8.75;7.50;;;;;17.23;74.20;98621.63;5057978;28;65570;-61
2021/10/03 04:33:24;;;;;;;;;9.75;8.50;;;;;17.24;74.36;98622.41;5058128;28;62472;-61
2021/10/03 04:35:49;;;;;;;;;6.75;6.75;;;;;17.25;74.15;98622.19;5058430;28;46376;-61
2021/10/03 04:38:14;;;;;;;;;9.50;8.00;;;;;17.26;73.98;98631.78;5058475;28;45343;-61
2021/10/03 04:40:40;;;;;;;;;6.25;6.25;;;;;17.26;74.36;98629.13;5040333;28;47524;-60
2021/10/03 04:43:06;;;;;;;;;10.25;7.50;;;;;17.26;74.26;98618.50;5040671;28;45450;-61
2021/10/03 04:45:31;;;;;;;;;7.75;7.00;;;;;17.27;74.26;98621.97;5058321;28;47828;-60
2021/10/03 04:47:59;;;;;;;;;7.00;7.00;;;;;17.26;74.52;98629.13;5057698;28;65189;-61
2021/10/03 04:50:25;;;;;;;;;10.50;8.75;;;;;17.26;74.33;98637.09;5058492;28;45248;-60
2021/10/03 04:52:50;;;;;;;;;6.00;6.00;;;;;17.28;74.68;98628.88;5057277;28;68627;-60
2021/10/03 04:55:15;;;;;;;;;8.00;7.25;;;;;17.26;74.34;98629.13;5057385;28;71113;-61
2021/10/03 04:57:41;;;;;;;;;8.50;8.00;;;;;17.27;74.41;98632.56;5057503;28;65405;-60
2021/10/03 05:00:08;;;;;;;;;8.50;6.25;;;;;17.28;74.76;98620.94;5040407;28;45508;-60
2021/10/03 05:02:33;;;;;;;;;6.75;6.50;;;;;17.30;74.92;98621.50;5058242;28;45412;-60
2021/10/03 05:04:58;;;;;;;;;9.00;7.00;;;;;17.30;75.02;98626.81;5057454;28;65090;-60
2021/10/03 05:07:24;;;;;;;;;7.75;7.75;;;;;17.30;74.72;98627.63;5039239;28;70207;-60
2021/10/03 05:09:49;;;;;;;;;9.25;8.00;;;;;17.29;74.82;98623.38;5057119;28;67366;-60
2021/10/03 05:12:14;;;;;;;;;10.50;7.75;;;;;17.29;74.88;98619.88;5039587;28;58615;-60
2021/10/03 05:14:40;;;;;;;;;8.00;7.25;;;;;17.28;75.04;98611.13;5057137;28;69035;-60
2021/10/03 05:17:05;;;;;;;;;7.50;7.00;;;;;17.28;75.16;98603.16;5057353;28;63772;-61
2021/10/03 05:19:30;;;;;;;;;8.00;8.00;;;;;17.28;74.89;98605.00;5056978;28;67636;-60
2021/10/03 05:21:56;;;;;;;;;9.00;7.00;;;;;17.28;75.36;98618.28;5056723;28;67315;-61
2021/10/03 05:24:21;;;;;;;;;8.25;7.00;;;;;17.28;75.33;98602.34;5057531;28;51959;-60
2021/10/03 05:26:46;;;;;;;;;7.75;6.50;;;;;17.26;75.19;98599.09;5056956;28;69829;-60
2021/10/03 05:29:12;;;;;;;;;8.25;7.75;;;;;17.26;75.44;98589.31;5056673;28;67013;-61
2021/10/03 05:31:37;;;;;;;;;9.75;6.00;;;;;17.24;75.40;98602.00;5057461;28;45316;-60
2021/10/03 05:34:03;;;;;;;;;8.25;7.00;;;;;17.24;75.51;98590.56;5057619;28;45503;-60
2021/10/03 05:36:28;;;;;;;;;7.50;6.25;;;;;17.24;75.32;98588.72;5056639;28;69940;-61
2021/10/03 05:38:56;;;;;;;;;6.50;6.50;;;;;17.24;75.45;98591.38;5057430;28;45305;-61
2021/10/03 05:41:21;;;;;;;;;8.00;7.00;;;;;17.25;75.67;98587.69;5057655;28;45426;-60
2021/10/03 05:43:47;;;;;;;;;10.00;7.50;;;;;17.25;75.67;98598.31;5056791;28;66568;-61
2021/10/03 05:46:12;;;;;;;;;8.25;8.25;;;;;17.24;75.82;98596.69;5057559;28;45337;-61
2021/10/03 05:48:38;;;;;;;;;6.00;6.00;;;;;17.26;75.84;98615.84;5056882;28;63992;-60
2021/10/03 05:51:03;;;;;;;;;8.25;8.00;;;;;17.26;76.12;98626.47;5057357;28;45859;-60
2021/10/03 05:53:29;;;;;;;;;9.25;7.50;;;;;17.28;75.87;98620.94;5038574;28;69565;-60
2021/10/03 05:55:54;;;;;;;;;8.00;7.75;;;;;17.30;75.97;98696.66;5057078;28;45400;-61
2021/10/03 05:58:20;;;;;;;;;9.75;6.50;;;;;17.30;76.33;98667.47;5056907;28;46319;-60
2021/10/03 06:00:45;;;;;;;;;6.25;5.50;;;;;17.31;76.10;98618.66;5057383;28;45359;-60
2021/10/03 06:03:11;;;;;;;;;7.00;7.00;;;;;17.32;76.28;98709.69;5056803;28;45670;-60
2021/10/03 06:05:36;;;;;;;;;5.00;5.00;;;;;17.33;76.44;98671.50;5056223;28;65007;-60
2021/10/03 06:08:02;;;;;;;;;6.00;5.00;;;;;17.33;76.06;98693.53;5056591;28;58128;-61
2021/10/03 06:10:27;;;;;;;;;3.50;3.50;;;;;17.33;75.82;98696.19;5057181;28;45308;-60
2021/10/03 06:12:53;;;;;;;;;1.50;1.50;;;;;17.32;74.96;98728.25;5057164;28;46297;-60
2021/10/03 06:15:18;;;;;;;;;1.00;0.25;;;;;17.26;74.52;98716.72;5057001;28;45324;-60
2021/10/03 06:17:44;;;;;;;;;2.50;1.00;;;;;17.20;74.14;98738.84;5038717;28;48739;-60
2021/10/03 06:20:10;;;;;;;;;2.25;0.00;;;;;17.06;73.22;98746.97;5057111;28;45246;-61
2021/10/03 06:22:36;;;;;;;;;1.00;0.00;;;;;16.94;73.00;98751.38;5056623;28;46197;-60
2021/10/03 06:25:01;;;;;;;;;0.00;0.00;;;;;16.84;73.19;98757.19;5056962;28;45258;-61
2021/10/03 06:27:26;;;;;;;;;0.00;0.00;;;;;16.72;73.53;98759.75;5057088;28;45308;-60
2021/10/03 06:29:53;;;;;;;;;0.00;0.00;;;;;16.65;73.63;98751.06;5056073;28;62214;-60
2021/10/03 06:32:18;;;;;;;;;0.00;0.00;;;;;16.60;73.58;98757.03;5056905;28;45537;-60
2021/10/03 06:34:44;;;;;;;;;0.00;0.00;;;;;16.57;73.49;98761.97;5056860;28;45375;-60
2021/10/03 06:37:09;;;;;;;;;0.00;0.00;;;;;16.53;73.61;98766.91;5056099;28;60641;-60
2021/10/03 06:39:34;;;;;;;;;0.00;0.00;;;;;16.47;73.77;98762.47;5056061;28;61711;-60
2021/10/03 06:42:00;;;;;;;;;0.00;0.00;;;;;16.41;73.69;98764.16;5054989;28;64548;-60
2021/10/03 06:44:25;;;;;;;;;0.25;0.00;;;;;16.38;74.15;98777.03;5055809;28;67333;-61
2021/10/03 06:46:50;;;;;;;;;0.00;0.00;;;;;16.34;74.50;98781.97;5055146;28;64230;-60
2021/10/03 06:49:16;;;;;;;;;0.00;0.00;;;;;16.33;74.43;98788.28;5055921;28;63009;-60
2021/10/03 06:51:43;;;;;;;;;0.00;0.00;;;;;16.32;74.56;98784.00;5056475;28;46108;-61
2021/10/03 06:54:10;;;;;;;;;0.00;0.00;;;;;16.30;74.74;98765.66;5056617;28;45825;-60
2021/10/03 06:56:35;;;;;;;;;0.75;0.00;;;;;16.31;75.04;98769.94;5056391;28;45309;-60
2021/10/03 06:59:00;;;;;;;;;0.00;0.00;;;;;16.32;75.01;98786.66;5056249;28;45488;-61
2021/10/03 07:01:26;;;;;;;;;2.00;2.00;;;;;16.32;75.20;98786.66;5055456;28;64650;-61
2021/10/03 07:03:51;;;;;;;;;2.50;1.00;;;;;16.32;75.33;98786.66;5056253;28;45270;-60
2021/10/03 07:06:17;;;;;;;;;2.00;2.00;;;;;16.34;75.18;98751.97;5056394;28;45653;-60
2021/10/03 07:08:42;;;;;;;;;1.00;1.00;;;;;16.35;75.10;98716.50;5037940;28;48086;-60
2021/10/03 07:11:08;;;;;;;;;1.00;1.00;;;;;16.35;75.02;98730.56;5038167;28;45354;-60
2021/10/03 07:13:34;;;;;;;;;0.75;0.75;;;;;16.36;75.24;98761.34;5056163;28;45468;-60
2021/10/03 07:15:59;;;;;;;;;2.00;2.00;;;;;16.35;74.99;98770.31;5037011;28;68549;-60
2021/10/03 07:18:25;;;;;;;;;1.50;1.25;;;;;16.36;75.24;98795.81;5055008;28;60769;-60
2021/10/03 07:20:50;;;;;;;;;2.00;2.00;;;;;16.36;75.11;98797.63;5055634;28;45416;-61
2021/10/03 07:23:15;;;;;;;;;1.50;1.50;;;;;16.37;75.08;98802.72;5054485;28;72056;-60
2021/10/03 07:25:41;;;;;;;;;4.25;3.00;;;;;16.37;75.23;98802.72;5054907;28;60864;-60
2021/10/03 07:28:06;;;;;;;;;5.75;3.00;;;;;16.37;74.94;98810.69;5055927;28;45395;-60
2021/10/03 07:30:31;;;;;;;;;1.00;1.00;;;;;16.37;74.83;98815.97;5037629;28;45381;-60
2021/10/03 07:32:57;;;;;;;;;5.25;4.25;;;;;16.37;75.11;98821.28;5036983;28;70636;-61
2021/10/03 07:35:22;;;;;;;;;2.00;2.00;;;;;16.38;75.05;98832.69;5054865;28;67739;-60
2021/10/03 07:37:48;;;;;;;;;2.00;2.00;;;;;16.38;75.06;98830.84;5055071;28;54278;-60
2021/10/03 07:40:15;;;;;;;;;1.75;1.00;;;;;16.38;75.01;98820.25;5055472;28;46055;-60
2021/10/03 07:42:42;;;;;;;;;3.50;2.00;;;;;16.38;75.02;98814.97;5055375;28;45247;-60
2021/10/03 07:45:08;;;;;;;;;4.00;4.00;;;;;16.39;75.18;98802.50;5055652;28;45225;-60
2021/10/03 07:47:33;;;;;;;;;3.00;3.00;;;;;16.40;75.24;98806.78;5055416;28;45343;-60
2021/10/03 07:49:58;;;;;;;;;4.00;4.00;;;;;16.39;75.16;98805.97;5054662;28;62494;-60
2021/10/03 07:52:24;;;;;;;;;13.75;10.25;;;;;16.41;74.77;98805.75;5055282;28;45293;-60
2021/10/03 07:54:49;;;;;;;;;7.25;7.25;;;;;16.42;75.86;98817.97;5057857;28;63009;-60
2021/10/03 07:57:14;;;;;;;;;6.00;5.25;;;;;16.41;75.26;98827.78;5058746;28;45586;-61
2021/10/03 07:59:40;;;;;;;;;6.50;5.25;;;;;16.43;75.24;98838.16;5057939;28;46047;-60
2021/10/03 08:02:05;;;;;;;;;5.75;5.75;;;;;16.44;75.03;98840.56;5040146;28;69079;-60
2021/10/03 08:04:31;;;;;;;;;6.00;4.25;;;;;16.44;75.25;98840.56;5058822;28;45322;-60
2021/10/03 08:06:56;;;;;;;;;7.00;5.25;;;;;16.47;75.23;98837.50;5058141;28;59848;-60
2021/10/03 08:09:22;;;;;;;;;5.00;5.00;;;;;16.46;75.23;98835.88;5057728;28;57949;-59
2021/10/03 08:11:47;;;;;;;;;6.00;4.75;;;;;16.47;75.30;98844.66;5040650;28;45342;-60
2021/10/03 08:14:13;;;;;;;;;3.25;3.00;;;;;16.49;75.14;98852.38;5058594;28;45350;-60
2021/10/03 08:16:39;;;;;;;;;5.00;5.00;;;;;16.49;75.18;98847.06;5058420;28;45364;-60
2021/10/03 08:19:04;;;;;;;;;4.00;3.00;;;;;16.49;75.22;98855.84;5040321;28;46074;-60
2021/10/03 08:21:29;;;;;;;;;4.00;3.00;;;;;16.50;75.32;98859.28;5058554;28;45442;-60
2021/10/03 08:23:55;;;;;;;;;3.50;3.00;;;;;16.51;75.21;98859.09;5057345;28;63046;-60
2021/10/03 08:26:20;;;;;;;;;3.00;3.00;;;;;16.52;75.22;98871.31;5058663;28;45368;-60
2021/10/03 08:28:46;;;;;;;;;4.00;4.00;;;;;16.54;75.24;98871.91;5058251;28;46446;-60
2021/10/03 08:31:11;;;;;;;;;2.00;2.00;;;;;16.55;75.15;98881.50;5058600;28;45440;-60
2021/10/03 08:33:37;;;;;;;;;2.00;2.00;;;;;16.57;75.29;98883.91;5058506;28;45264;-60
2021/10/03 08:36:02;;;;;;;;;3.00;2.00;;;;;16.58;75.35;98886.38;5058407;28;45319;-59
2021/10/03 08:38:28;;;;;;;;;3.00;3.00;;;;;16.59;75.38;98898.59;5040155;28;46790;-60
2021/10/03 08:40:54;;;;;;;;;2.50;2.00;;;;;16.61;75.43;98901.00;5057392;28;69679;-60
2021/10/03 08:43:19;;;;;;;;;1.75;1.75;;;;;16.64;75.38;98900.59;5058468;28;45288;-60
2021/10/03 08:45:45;;;;;;;;;2.50;2.00;;;;;16.65;75.49;98894.25;5057296;28;62712;-60
2021/10/03 08:48:15;;;;;;;;;3.00;3.00;;;;;16.67;75.53;98891.41;5057994;28;45625;-60
2021/10/03 08:50:41;;;;;;;;;4.00;2.50;;;;;16.70;75.36;98894.41;5039970;28;45793;-60
2021/10/03 08:53:06;;;;;;;;;2.00;2.00;;;;;16.71;75.56;98896.03;5058130;28;45242;-60
2021/10/03 08:55:32;;;;;;;;;4.00;3.00;;;;;16.72;75.57;98897.66;5057200;28;63651;-60
2021/10/03 08:57:57;;;;;;;;;2.75;2.50;;;;;16.74;75.61;98905.41;5056978;28;69958;-60
2021/10/03 09:00:23;;;;;;;;;4.00;3.00;;;;;16.77;75.79;98910.28;5039030;28;61838;-60
2021/10/03 09:02:55;;;;;;;;;3.50;2.00;;;;;16.80;76.03;98932.91;5057778;28;45356;-60
2021/10/03 09:05:21;;;;;;;;;3.00;3.00;;;;;16.81;76.27;98945.16;5056819;28;45281;-60
2021/10/03 09:08:13;;;;;;;;;4.00;4.00;;;;;16.84;76.33;98940.22;5057675;28;45341;-60
2021/10/03 09:10:51;;;;;;;;;3.75;3.00;;;;;16.87;76.43;98937.13;5034080;28;45864;-59
2021/10/03 09:13:17;;;;;;;;;4.25;4.25;;;;;16.89;76.65;98932.41;5057851;28;45272;-60
2021/10/03 09:15:42;;;;;;;;;3.25;3.25;;;;;16.94;76.55;98934.44;5057667;28;45567;-60
2021/10/03 09:18:08;;;;;;;;;2.25;2.25;;;;;16.97;76.56;98941.16;5056919;28;61206;-60
2021/10/03 09:20:33;;;;;;;;;4.25;2.00;;;;;17.01;76.53;98939.69;5057238;28;51204;-60
2021/10/03 09:23:05;;;;;;;;;2.25;2.25;;;;;17.03;76.51;98948.25;5036173;28;45486;-60
2021/10/03 09:25:49;;;;;;;;;2.00;2.00;;;;;17.05;76.41;98952.31;5037330;28;45683;-60
2021/10/03 09:28:30;;;;;;;;;2.00;2.00;;;;;17.09;76.08;98968.63;5069500;28;45293;-60
2021/10/03 09:31:14;;;;;;;;;2.50;2.00;;;;;17.11;76.16;98971.03;5036778;28;45410;-61
2021/10/03 09:33:43;;;;;;;;;1.50;1.50;;;;;17.14;76.15;98982.03;5036911;28;45336;-60
2021/10/03 09:36:09;;;;;;;;;6.75;6.75;;;;;17.17;76.35;98975.47;5037021;28;45586;-61
2021/10/03 09:38:51;;;;;;;;;2.00;2.00;;;;;17.19;76.02;98989.34;5035363;28;46231;-61
2021/10/03 09:41:20;;;;;;;;;4.50;4.00;;;;;17.19;76.28;98989.34;5035546;28;45827;-61
2021/10/03 09:43:48;;;;;;;;;35.50;30.00;;;;;17.20;76.18;98994.44;5068994;27;45437;-61
2021/10/03 09:46:38;;;;;;;;;14.50;12.25;;;;;17.21;76.18;98992.59;5037176;28;45642;-60
2021/10/03 09:49:05;;;;;;;;;7.00;5.00;;;;;17.23;76.43;98998.50;5037035;28;45346;-60
2021/10/03 09:51:31;;;;;;;;;3.75;3.75;;;;;17.24;75.94;98994.81;5037119;28;45861;-61
2021/10/03 09:53:57;;;;;;;;;11.50;11.00;;;;;17.25;76.36;99001.75;5036931;28;45212;-61
2021/10/03 09:56:22;;;;;;;;;7.00;6.00;;;;;17.27;76.44;99010.31;5036166;28;59147;-61
2021/10/03 09:58:47;;;;;;;;;4.75;4.00;;;;;17.28;76.15;99014.59;5035942;28;62491;-60
2021/10/03 10:01:13;;;;;;;;;4.00;4.00;;;;;17.29;76.17;98997.63;5034585;28;45329;-61
2021/10/03 10:03:39;;;;;;;;;7.50;5.75;;;;;17.29;76.12;99047.25;5037040;28;45165;-60
2021/10/03 10:06:04;;;;;;;;;0.00;0.00;;;;;17.27;74.69;99113.84;5069096;28;45238;-61
2021/10/03 10:08:31;;;;;;;;;0.00;0.00;;;;;17.10;70.93;99149.88;5035419;28;45370;-61
2021/10/03 10:11:02;;;;;;;;;0.00;0.00;;;;;16.88;70.90;99168.75;5068723;28;45393;-61
2021/10/03 10:13:28;;;;;;;;;1.00;0.00;;;;;16.67;69.92;99201.69;5035707;28;45445;-60
2021/10/03 10:15:53;;;;;;;;;0.00;0.00;;;;;16.44;68.58;99206.41;5051173;28;62197;-60
2021/10/03 10:18:20;;;;;;;;;0.00;0.00;;;;;16.20;69.00;99222.97;5034235;28;70426;-60
2021/10/03 10:20:46;;;;;;;;;0.00;0.00;;;;;15.97;68.70;99245.38;5035482;28;45304;-60
2021/10/03 10:23:13;;;;;;;;;0.00;0.00;;;;;15.74;68.84;99254.50;5067867;27;54530;-60
2021/10/03 10:25:52;;;;;;;;;0.50;0.00;;;;;15.53;69.30;99250.19;5036381;28;45424;-60
2021/10/03 10:28:27;;;;;;;;;0.00;0.00;;;;;15.34;69.94;99268.47;5034952;28;46432;-61
2021/10/03 10:31:07;;;;;;;;;1.00;1.00;;;;;15.21;70.24;99279.00;5036426;28;45237;-60
2021/10/03 10:33:50;;;;;;;;;1.75;0.75;;;;;15.10;70.64;99286.47;5036068;28;45358;-60
2021/10/03 10:36:16;;;;;;;;;0.00;0.00;;;;;15.04;70.68;99292.56;5036230;28;45534;-60
2021/10/03 10:38:41;;;;;;;;;0.67;0.67;;;;;14.96;71.32;99306.75;5035923;28;45319;-60
2021/10/03 10:41:33;;;;;;;;;0.00;0.00;;;;;14.91;71.02;99301.22;5033714;28;68558;-59
2021/10/03 10:43:58;;;;;;;;;0.00;0.00;;;;;14.88;71.44;99306.91;5034814;28;45481;-60
2021/10/03 10:46:43;;;;;;;;;1.50;1.50;;;;;14.86;71.52;99313.41;5051616;28;45304;-60
2021/10/03 10:49:24;;;;;;;;;0.25;0.25;;;;;14.82;71.28;99329.66;5067557;28;46035;-60
2021/10/03 10:52:18;;;;;;;;;6.50;6.50;;;;;14.77;70.90;99337.38;5035572;28;45220;-60
2021/10/03 10:54:59;;;;;;;;;0.50;0.50;;;;;14.74;71.17;99360.75;5035888;28;45273;-60
2021/10/03 10:57:25;;;;;;;;;0.25;0.25;;;;;14.71;70.44;99393.66;5051617;28;45652;-60
2021/10/03 11:00:20;;;;;;;;;0.00;0.00;;;;;14.68;71.12;99400.13;5035814;28;45331;-62
2021/10/03 11:02:54;;;;;;;;;0.00;0.00;;;;;14.67;71.57;99434.66;5036973;28;45348;-59
2021/10/03 11:05:35;;;;;;;;;0.25;0.25;;;;;14.67;71.50;99443.44;5035641;28;45305;-60
2021/10/03 11:08:10;;;;;;;;;1.00;1.00;;;;;14.65;70.50;99445.44;5035959;28;45426;-60
2021/10/03 11:10:57;;;;;;;;;0.50;0.50;;;;;14.64;71.25;99443.81;5035723;28;46720;-60
2021/10/03 11:13:38;;;;;;;;;1.00;1.00;;;;;14.65;70.96;99450.72;5035521;28;45224;-60
2021/10/03 11:16:25;;;;;;;;;1.00;1.00;;;;;14.64;70.62;99458.84;5035668;28;45326;-60
2021/10/03 11:18:55;;;;;;;;;1.00;1.00;;;;;14.64;71.00;99441.16;5035558;28;45225;-60
2021/10/03 11:21:28;;;;;;;;;3.00;2.25;;;;;14.66;71.66;99457.66;5035135;28;50521;-60
2021/10/03 11:23:54;;;;;;;;;0.50;0.50;;;;;14.71;72.14;99466.88;5053906;28;45189;-60
2021/10/03 11:26:21;;;;;;;;;1.75;0.75;;;;;14.76;71.42;99470.56;5055560;28;45437;-60
2021/10/03 11:28:51;;;;;;;;;0.50;0.50;;;;;14.81;71.61;99470.81;5057485;28;45343;-60
2021/10/03 11:31:37;;;;;;;;;1.50;0.50;;;;;14.90;71.61;99478.63;5041191;28;46426;-60
2021/10/03 11:34:05;;;;;;;;;1.50;0.50;;;;;14.97;71.99;99482.97;5059086;28;45728;-60